createdAt,value
2019-05-09T00:00:34.094Z,99256.03
2019-05-09T00:05:37.610Z,99250.73
2019-05-09T00:10:41.960Z,99241.50
2019-05-09T00:15:46.340Z,99246.78
2019-05-09T00:20:55.108Z,99252.30
2019-05-09T00:25:58.487Z,99244.64
2019-05-09T00:31:06.467Z,99237.28
2019-05-09T00:36:09.713Z,99250.00
2019-05-09T00:41:14.169Z,99246.84
2019-05-09T00:46:29.187Z,99237.86
2019-05-09T00:51:33.894Z,99238.34
2019-05-09T00:56:37.195Z,99237.55
2019-05-09T01:01:40.111Z,99243.06
2019-05-09T01:06:43.538Z,99239.86
2019-05-09T01:11:46.524Z,99245.84
2019-05-09T01:16:49.698Z,99238.40
2019-05-09T01:21:54.216Z,99243.77
2019-05-09T01:26:57.593Z,99234.66
2019-05-09T01:32:04.899Z,99244.73
2019-05-09T01:37:13.912Z,99250.11
2019-05-09T01:42:17.091Z,99257.48
2019-05-09T01:47:20.056Z,99247.25
2019-05-09T01:52:23.188Z,99252.77
2019-05-09T01:57:26.368Z,99243.73
2019-05-09T02:02:29.548Z,99242.67
2019-05-09T02:07:33.241Z,99246.14
2019-05-09T02:12:36.819Z,99247.58
2019-05-09T02:18:05.403Z,99242.05
2019-05-09T02:23:08.838Z,99238.84
2019-05-09T02:28:14.043Z,99241.88
2019-05-09T02:33:16.937Z,99241.09
2019-05-09T02:38:20.107Z,99237.41
2019-05-09T02:43:23.110Z,99231.73
2019-05-09T02:48:28.829Z,99232.97
2019-05-09T02:53:31.797Z,99235.48
2019-05-09T02:58:43.631Z,99237.89
2019-05-09T03:03:48.178Z,99239.59
2019-05-09T03:08:51.929Z,99236.19
2019-05-09T03:13:58.362Z,99234.90
2019-05-09T03:19:00.538Z,99234.30
2019-05-09T03:24:04.381Z,99235.75
2019-05-09T03:29:19.109Z,99240.88
2019-05-09T03:34:21.734Z,99241.50
2019-05-09T03:39:27.639Z,99244.96
2019-05-09T03:44:30.709Z,99243.91
2019-05-09T03:49:34.026Z,99242.70
2019-05-09T03:54:37.653Z,99244.73
2019-05-09T03:59:41.563Z,99242.22
2019-05-09T04:04:44.527Z,99252.57
2019-05-09T04:09:48.087Z,99251.25
2019-05-09T04:14:51.443Z,99252.52
2019-05-09T04:19:54.599Z,99258.05
2019-05-09T04:24:58.333Z,99258.92
2019-05-09T04:30:01.504Z,99270.81
2019-05-09T04:35:04.169Z,99281.30
2019-05-09T04:40:08.224Z,99282.38
2019-05-09T04:45:28.336Z,99287.33
2019-05-09T04:50:31.681Z,99288.72
2019-05-09T04:55:37.659Z,99291.19
2019-05-09T05:00:59.197Z,99293.79
2019-05-09T05:06:02.760Z,99297.06
2019-05-09T05:11:07.498Z,99293.95
2019-05-09T05:16:10.906Z,99291.97
2019-05-09T05:21:14.753Z,99293.31
2019-05-09T05:26:19.326Z,99298.38
2019-05-09T05:31:22.236Z,99291.90
2019-05-09T05:36:25.310Z,99288.36
2019-05-09T05:41:28.838Z,99297.72
2019-05-09T05:46:51.741Z,99300.34
2019-05-09T05:51:57.520Z,99301.80
2019-05-09T05:57:00.695Z,99302.67
2019-05-09T06:02:04.256Z,99305.50
2019-05-09T06:07:08.124Z,99316.89
2019-05-09T06:12:11.474Z,99324.69
2019-05-09T06:17:14.652Z,99322.16
2019-05-09T06:22:18.513Z,99332.38
2019-05-09T06:27:21.670Z,99346.58
2019-05-09T06:32:24.962Z,99344.53
2019-05-09T06:37:28.618Z,99350.06
2019-05-09T06:42:32.388Z,99355.91
2019-05-09T06:47:38.234Z,99360.84
2019-05-09T06:52:42.737Z,99353.11
2019-05-09T06:57:48.711Z,99354.97
2019-05-09T07:03:00.734Z,99365.62
2019-05-09T07:08:10.221Z,99370.41
2019-05-09T07:13:12.823Z,99372.33
2019-05-09T07:18:15.727Z,99379.58
2019-05-09T07:23:18.301Z,99386.93
2019-05-09T07:28:21.796Z,99379.20
2019-05-09T07:33:39.281Z,99386.93
2019-05-09T07:38:42.848Z,99387.23
2019-05-09T07:43:47.611Z,99393.95
2019-05-09T07:48:50.494Z,99393.65
2019-05-09T07:53:53.644Z,99390.63
2019-05-09T07:58:58.512Z,99396.41
2019-05-09T08:04:02.024Z,99391.69
2019-05-09T08:09:08.410Z,99382.91
2019-05-09T08:14:11.719Z,99383.72
2019-05-09T08:19:14.933Z,99394.16
2019-05-09T08:24:18.376Z,99395.39
2019-05-09T08:29:21.611Z,99404.52
2019-05-09T08:34:25.178Z,99404.59
2019-05-09T08:39:29.105Z,99416.31
2019-05-09T08:44:32.883Z,99413.09
2019-05-09T08:50:10.012Z,99419.34
2019-05-09T08:55:13.020Z,99416.52
2019-05-09T09:00:18.870Z,99419.56
2019-05-09T09:05:21.025Z,99419.66
2019-05-09T09:10:24.502Z,99423.61
2019-05-09T09:15:50.026Z,99427.11
2019-05-09T09:20:33.482Z,99425.31
2019-05-09T09:25:38.883Z,99431.39
2019-05-09T09:30:41.679Z,99428.02
2019-05-09T09:35:44.965Z,99434.88
2019-05-09T09:40:48.223Z,99440.38
2019-05-09T09:46:06.262Z,99439.91
2019-05-09T09:50:57.991Z,99445.22
2019-05-09T09:56:01.437Z,99457.69
2019-05-09T10:01:22.271Z,99456.13
2019-05-09T10:06:25.413Z,99468.56
2019-05-09T10:11:28.754Z,99464.92
2019-05-09T10:16:44.588Z,99464.09
2019-05-09T10:21:51.127Z,99464.95
2019-05-09T10:27:10.724Z,99467.91
2019-05-09T10:32:17.922Z,99469.63
2019-05-09T10:37:20.598Z,99471.34
2019-05-09T10:42:30.938Z,99469.64
2019-05-09T10:47:34.413Z,99478.93
2019-05-09T10:52:37.221Z,99477.60
2019-05-09T10:57:42.605Z,99475.64
2019-05-09T11:02:48.180Z,99469.91
2019-05-09T11:07:51.124Z,99474.56
2019-05-09T11:12:54.434Z,99473.47
2019-05-09T11:17:58.129Z,99468.75
2019-05-09T11:23:01.456Z,99484.44
2019-05-09T11:28:10.910Z,99478.81
2019-05-09T11:33:10.139Z,99482.55
2019-05-09T11:38:13.295Z,99496.52
2019-05-09T11:43:18.129Z,99493.20
2019-05-09T11:48:21.489Z,99491.47
2019-05-09T11:53:25.114Z,99484.55
2019-05-09T11:58:28.238Z,99485.19
2019-05-09T12:03:31.105Z,99487.45
2019-05-09T12:08:34.372Z,99490.77
2019-05-09T12:13:38.144Z,99498.63
2019-05-09T12:18:40.990Z,99488.86
2019-05-09T12:23:44.782Z,99493.05
2019-05-09T12:28:48.621Z,99493.70
2019-05-09T12:33:52.180Z,99491.37
2019-05-09T12:38:58.754Z,99492.31
2019-05-09T12:44:00.547Z,99484.15
2019-05-09T12:49:04.143Z,99488.43
2019-05-09T12:54:08.580Z,99488.94
2019-05-09T12:59:11.669Z,99489.47
2019-05-09T13:04:14.592Z,99497.36
2019-05-09T13:09:18.007Z,99487.95
2019-05-09T13:14:20.709Z,99497.56
2019-05-09T13:19:27.943Z,99497.03
2019-05-09T13:24:31.193Z,99487.91
2019-05-09T13:29:34.723Z,99493.59
2019-05-09T13:34:38.307Z,99498.92
2019-05-09T13:39:41.567Z,99508.47
2019-05-09T13:44:47.438Z,99506.84
2019-05-09T13:49:50.544Z,99506.09
2019-05-09T13:54:54.316Z,99506.91
2019-05-09T13:59:59.629Z,99501.16
2019-05-09T14:05:03.024Z,99503.17
2019-05-09T14:10:09.053Z,99499.12
2019-05-09T14:15:12.538Z,99505.06
2019-05-09T14:20:18.003Z,99514.58
2019-05-09T14:25:21.222Z,99512.56
2019-05-09T14:30:27.376Z,99518.06
2019-05-09T14:35:32.142Z,99525.19
2019-05-09T14:40:37.184Z,99524.94
2019-05-09T14:45:40.548Z,99525.36
2019-05-09T14:50:43.793Z,99530.78
2019-05-09T14:55:47.646Z,99534.38
2019-05-09T15:00:52.069Z,99537.24
2019-05-09T15:05:57.457Z,99542.09
2019-05-09T15:11:00.977Z,99542.05
2019-05-09T15:16:04.537Z,99553.70
2019-05-09T15:21:08.053Z,99547.91
2019-05-09T15:26:11.820Z,99545.38
2019-05-09T15:31:15.142Z,99549.95
2019-05-09T15:36:19.223Z,99547.52
2019-05-09T15:41:22.872Z,99544.53
2019-05-09T15:46:32.026Z,99542.22
2019-05-09T15:51:38.478Z,99546.45
2019-05-09T15:56:44.148Z,99549.71
2019-05-09T16:01:49.452Z,99556.14
2019-05-09T16:06:52.878Z,99554.00
2019-05-09T16:11:56.022Z,99551.89
2019-05-09T16:16:59.319Z,99563.25
2019-05-09T16:22:02.199Z,99565.64
2019-05-09T16:27:08.276Z,99561.52
2019-05-09T16:32:11.409Z,99560.58
2019-05-09T16:37:14.706Z,99568.33
2019-05-09T16:42:17.967Z,99561.17
2019-05-09T16:47:22.697Z,99568.42
2019-05-09T16:52:26.342Z,99568.42
2019-05-09T16:57:29.327Z,99573.59
2019-05-09T17:02:32.836Z,99580.90
2019-05-09T17:07:38.405Z,99580.88
2019-05-09T17:12:42.136Z,99586.97
2019-05-09T17:17:47.575Z,99587.40
2019-05-09T17:23:13.475Z,99587.80
2019-05-09T17:28:11.441Z,99589.90
2019-05-09T17:33:14.862Z,99583.55
2019-05-09T17:38:18.359Z,99589.11
2019-05-09T17:43:21.622Z,99585.71
2019-05-09T17:48:25.105Z,99595.05
2019-05-09T17:53:29.323Z,99597.58
2019-05-09T17:58:33.646Z,99602.23
2019-05-09T18:03:38.480Z,99593.80
2019-05-09T18:08:42.741Z,99609.05
2019-05-09T18:13:48.118Z,99614.14
2019-05-09T18:18:54.812Z,99613.29
2019-05-09T18:23:58.781Z,99616.28
2019-05-09T18:29:02.037Z,99621.38
2019-05-09T18:34:07.792Z,99629.41
2019-05-09T18:39:11.177Z,99628.98
2019-05-09T18:44:14.209Z,99634.88
2019-05-09T18:49:17.971Z,99630.20
2019-05-09T18:54:21.252Z,99640.35
2019-05-09T18:59:24.226Z,99639.82
2019-05-09T19:04:27.302Z,99651.59
2019-05-09T19:09:30.328Z,99658.27
2019-05-09T19:14:33.378Z,99670.94
2019-05-09T19:19:43.258Z,99673.48
2019-05-09T19:24:46.797Z,99673.89
2019-05-09T19:29:49.879Z,99674.75
2019-05-09T19:34:53.307Z,99684.42
2019-05-09T19:39:56.819Z,99691.21
2019-05-09T19:45:00.605Z,99691.21
2019-05-09T19:50:04.524Z,99689.98
2019-05-09T19:55:08.349Z,99691.59
2019-05-09T20:00:15.491Z,99697.86
2019-05-09T20:05:18.435Z,99702.89
2019-05-09T20:10:44.039Z,99703.75
2019-05-09T20:15:57.538Z,99703.30
2019-05-09T20:21:04.903Z,99697.32
2019-05-09T20:26:16.930Z,99698.09
2019-05-09T20:31:29.834Z,99702.39
2019-05-09T20:36:38.820Z,99706.93
2019-05-09T20:41:48.018Z,99719.08
2019-05-09T20:46:52.718Z,99725.96
2019-05-09T20:52:08.747Z,99720.19
2019-05-09T20:57:13.944Z,99725.08
2019-05-09T21:02:40.101Z,99723.35
2019-05-09T21:07:48.053Z,99722.72
2019-05-09T21:12:56.747Z,99723.70
2019-05-09T21:18:02.870Z,99727.83
2019-05-09T21:23:23.850Z,99730.19
2019-05-09T21:28:18.042Z,99728.39
2019-05-09T21:33:22.532Z,99730.95
2019-05-09T21:38:30.311Z,99741.03
2019-05-09T21:43:36.612Z,99749.20
2019-05-09T21:48:41.191Z,99749.63
2019-05-09T21:53:44.503Z,99749.55
2019-05-09T21:58:47.391Z,99750.75
2019-05-09T22:03:50.616Z,99762.23
2019-05-09T22:08:55.292Z,99765.66
2019-05-09T22:13:58.720Z,99773.58
2019-05-09T22:19:02.366Z,99773.34
2019-05-09T22:24:05.286Z,99770.35
2019-05-09T22:29:08.943Z,99768.71
2019-05-09T22:34:11.948Z,99770.84
2019-05-09T22:39:15.182Z,99771.25
2019-05-09T22:44:17.976Z,99771.88
2019-05-09T22:49:20.621Z,99770.39
2019-05-09T22:54:24.023Z,99774.02
2019-05-09T22:59:27.294Z,99768.85
2019-05-09T23:04:30.891Z,99771.77
2019-05-09T23:09:34.541Z,99767.75
2019-05-09T23:14:37.431Z,99776.65
2019-05-09T23:19:40.922Z,99794.57
2019-05-09T23:24:44.846Z,99786.29
2019-05-09T23:29:48.376Z,99780.34
2019-05-09T23:34:51.904Z,99772.28
2019-05-09T23:39:54.909Z,99802.45
2019-05-09T23:44:57.818Z,99786.83
2019-05-09T23:50:01.032Z,99790.16
2019-05-09T23:55:22.680Z,99788.41
